Terminal Aerodrome Forecast
Issued by NWS

Home | Current Version | Previous Version | Text Only | Print | Product List | Glossary On
Versions: 1 2 3 4 5 6 7 8 9 10 11 12
000
FTUS46 KPDT 171100
TAFPSC
TAF
KPSC 171140Z 1712/1812 VRB05KT P6SM FEW110 SCT150 BKN200
     FM171500 VRB05KT P6SM SCT130 BKN180
     FM172100 32008KT P6SM SCT090 BKN130
     FM180400 20005KT P6SM SCT120 OVC150=

USA.gov is the U.S. government's official web portal to all federal, state and local government web resources and services.